createdAt,value
2023-04-16T00:01:15.578Z,68.95
2023-04-16T00:06:36.503Z,68.97
2023-04-16T00:11:57.479Z,69.22
2023-04-16T00:17:18.281Z,69.07
2023-04-16T00:22:39.633Z,69.50
2023-04-16T00:28:00.438Z,69.82
2023-04-16T00:33:21.587Z,69.67
2023-04-16T00:38:42.157Z,69.81
2023-04-16T00:44:02.888Z,69.61
2023-04-16T00:49:24.629Z,69.74
2023-04-16T00:54:46.086Z,70.21
2023-04-16T01:00:08.653Z,70.48
2023-04-16T01:05:30.298Z,70.12
2023-04-16T01:10:50.985Z,70.28
2023-04-16T01:16:12.941Z,70.36
2023-04-16T01:21:33.946Z,70.34
2023-04-16T01:26:54.497Z,70.25
2023-04-16T01:32:15.594Z,70.18
2023-04-16T01:37:37.629Z,69.91
2023-04-16T01:42:58.283Z,70.26
2023-04-16T01:48:19.102Z,70.56
2023-04-16T01:53:39.920Z,70.19
2023-04-16T01:59:00.712Z,70.59
2023-04-16T02:04:27.566Z,70.30
2023-04-16T02:09:50.239Z,70.27
2023-04-16T02:15:11.751Z,69.72
2023-04-16T02:20:32.735Z,70.10
2023-04-16T02:25:54.463Z,70.18
2023-04-16T02:31:18.047Z,70.02
2023-04-16T02:36:39.173Z,70.58
2023-04-16T02:42:01.562Z,70.24
2023-04-16T02:47:22.252Z,70.73
2023-04-16T02:52:43.471Z,70.62
2023-04-16T02:58:04.120Z,70.47
2023-04-16T03:03:24.825Z,70.44
2023-04-16T03:08:45.462Z,70.50
2023-04-16T03:14:06.229Z,70.51
2023-04-16T03:19:26.935Z,70.44
2023-04-16T03:24:47.570Z,70.28
2023-04-16T03:30:11.039Z,70.52
2023-04-16T03:35:31.874Z,70.32
2023-04-16T03:40:52.494Z,70.06
2023-04-16T03:46:13.658Z,70.54
2023-04-16T03:51:34.326Z,70.92
2023-04-16T03:56:55.086Z,70.50
2023-04-16T04:02:16.303Z,70.83
2023-04-16T04:07:37.610Z,70.07
2023-04-16T04:12:58.832Z,70.52
2023-04-16T04:18:19.833Z,70.29
2023-04-16T04:23:41.696Z,70.38
2023-04-16T04:29:02.556Z,70.13
2023-04-16T04:34:24.456Z,70.17
2023-04-16T04:39:45.185Z,70.37
2023-04-16T04:45:07.678Z,70.42
2023-04-16T04:50:29.488Z,70.59
2023-04-16T04:55:54.185Z,70.20
2023-04-16T05:01:18.828Z,70.43
2023-04-16T05:06:39.511Z,70.49
2023-04-16T05:12:00.285Z,70.53
2023-04-16T05:17:20.995Z,70.13
2023-04-16T05:22:41.738Z,70.05
2023-04-16T05:28:02.621Z,69.74
2023-04-16T05:33:23.322Z,70.33
2023-04-16T05:38:44.050Z,70.14
2023-04-16T05:44:04.949Z,70.26
2023-04-16T05:49:26.012Z,70.07
2023-04-16T05:54:46.601Z,69.79
2023-04-16T06:00:08.144Z,70.13
2023-04-16T06:05:35.056Z,70.30
2023-04-16T06:10:56.626Z,70.32
2023-04-16T06:16:17.415Z,69.86
2023-04-16T06:21:38.334Z,70.17
2023-04-16T06:26:59.444Z,70.41
2023-04-16T06:32:20.258Z,70.05
2023-04-16T06:37:41.452Z,70.17
2023-04-16T06:43:02.090Z,70.03
2023-04-16T06:48:22.744Z,69.98
2023-04-16T06:53:43.543Z,72.03
2023-04-16T06:59:04.933Z,70.33
2023-04-16T07:04:26.180Z,69.90
2023-04-16T07:09:47.239Z,70.01
2023-04-16T07:15:08.785Z,71.02
2023-04-16T07:20:29.426Z,69.80
2023-04-16T07:25:50.498Z,69.85
2023-04-16T07:31:11.499Z,69.20
2023-04-16T07:36:32.343Z,69.69
2023-04-16T07:41:53.297Z,69.94
2023-04-16T07:47:14.185Z,70.17
2023-04-16T07:52:35.059Z,70.22
2023-04-16T07:57:55.755Z,70.21
2023-04-16T08:03:16.751Z,70.12
2023-04-16T08:08:37.849Z,69.80
2023-04-16T08:13:58.793Z,69.86
2023-04-16T08:19:19.636Z,69.82
2023-04-16T08:24:40.434Z,69.45
2023-04-16T08:30:01.196Z,69.06
2023-04-16T08:35:21.868Z,68.87
2023-04-16T08:40:43.601Z,69.19
2023-04-16T08:46:05.907Z,69.07
2023-04-16T08:51:34.056Z,69.29
2023-04-16T08:56:56.054Z,69.17
2023-04-16T09:02:17.313Z,68.95
2023-04-16T09:07:38.956Z,69.31
2023-04-16T09:12:59.927Z,68.86
2023-04-16T09:18:21.347Z,68.40
2023-04-16T09:23:42.391Z,69.62
2023-04-16T09:29:03.347Z,68.90
2023-04-16T09:34:24.351Z,68.32
2023-04-16T09:39:53.080Z,68.40
2023-04-16T09:45:14.019Z,68.84
2023-04-16T09:50:34.754Z,68.60
2023-04-16T09:56:03.163Z,68.59
2023-04-16T10:01:24.403Z,68.48
2023-04-16T10:06:48.543Z,68.11
2023-04-16T10:12:09.605Z,68.17
2023-04-16T10:17:31.648Z,67.30
2023-04-16T10:22:54.453Z,67.07
2023-04-16T10:28:16.209Z,67.12
2023-04-16T10:33:40.766Z,66.96
2023-04-16T10:39:01.401Z,67.01
2023-04-16T10:44:24.970Z,67.31
2023-04-16T10:49:48.236Z,67.25
2023-04-16T10:55:17.145Z,66.58
2023-04-16T11:00:51.283Z,66.28
2023-04-16T11:06:17.743Z,66.08
2023-04-16T11:11:39.661Z,66.24
2023-04-16T11:17:03.848Z,65.51
2023-04-16T11:22:25.941Z,66.13
2023-04-16T11:27:46.723Z,66.28
2023-04-16T11:33:12.029Z,66.39
2023-04-16T11:38:36.895Z,65.90
2023-04-16T11:43:57.807Z,65.84
2023-04-16T11:49:27.654Z,65.21
2023-04-16T11:54:50.741Z,65.20
2023-04-16T12:00:16.126Z,65.46
2023-04-16T12:05:39.349Z,64.66
2023-04-16T12:11:00.507Z,64.53
2023-04-16T12:16:21.450Z,65.13
2023-04-16T12:21:45.491Z,65.26
2023-04-16T12:27:06.875Z,64.94
2023-04-16T12:32:28.624Z,64.73
2023-04-16T12:37:49.624Z,64.51
2023-04-16T12:43:10.856Z,63.52
2023-04-16T12:48:32.677Z,63.99
2023-04-16T12:53:55.798Z,63.71
2023-04-16T12:59:17.873Z,63.85
2023-04-16T13:04:38.956Z,63.17
2023-04-16T13:10:01.035Z,63.60
2023-04-16T13:15:21.573Z,63.41
2023-04-16T13:20:42.460Z,63.34
2023-04-16T13:26:03.130Z,62.74
2023-04-16T13:31:23.984Z,62.89
2023-04-16T13:36:44.580Z,62.98
2023-04-16T13:42:05.433Z,63.12
2023-04-16T13:47:26.284Z,63.61
2023-04-16T13:52:47.323Z,63.42
2023-04-16T13:58:07.894Z,63.17
2023-04-16T14:03:28.833Z,63.26
2023-04-16T14:08:49.382Z,62.55
2023-04-16T14:14:10.062Z,62.64
2023-04-16T14:19:31.031Z,61.91
2023-04-16T14:24:51.891Z,61.84
2023-04-16T14:30:12.889Z,61.28
2023-04-16T14:35:34.566Z,61.35
2023-04-16T14:40:55.368Z,61.36
2023-04-16T14:46:19.408Z,61.30
2023-04-16T14:51:41.325Z,60.91
2023-04-16T14:57:02.572Z,61.15
2023-04-16T15:02:23.392Z,61.50
2023-04-16T15:07:44.563Z,60.81
2023-04-16T15:13:05.089Z,60.22
2023-04-16T15:18:26.188Z,59.92
2023-04-16T15:23:47.213Z,60.21
2023-04-16T15:29:07.987Z,60.24
2023-04-16T15:34:28.454Z,59.99
2023-04-16T15:39:49.810Z,59.88
2023-04-16T15:45:10.950Z,60.50
2023-04-16T15:50:32.737Z,60.39
2023-04-16T15:55:54.704Z,60.37
2023-04-16T16:01:15.731Z,60.27
2023-04-16T16:06:38.112Z,60.31
2023-04-16T16:11:59.793Z,60.12
2023-04-16T16:17:20.773Z,60.24
2023-04-16T16:22:45.265Z,60.71
2023-04-16T16:28:06.697Z,60.08
2023-04-16T16:33:28.843Z,59.92
2023-04-16T16:38:49.840Z,60.25
2023-04-16T16:44:10.644Z,59.74
2023-04-16T16:49:31.744Z,59.94
2023-04-16T16:54:56.897Z,60.22
2023-04-16T17:00:20.106Z,60.46
2023-04-16T17:05:41.450Z,60.71
2023-04-16T17:11:05.647Z,60.81
2023-04-16T17:16:26.414Z,60.86
2023-04-16T17:21:46.975Z,61.07
2023-04-16T17:27:07.811Z,61.19
2023-04-16T17:32:29.834Z,61.42
2023-04-16T17:37:51.373Z,61.51
2023-04-16T17:43:12.110Z,61.57
2023-04-16T17:48:32.876Z,61.58
2023-04-16T17:53:53.856Z,61.41
2023-04-16T17:59:14.703Z,61.82
2023-04-16T18:04:35.763Z,61.73
2023-04-16T18:09:57.079Z,62.10
2023-04-16T18:15:18.069Z,62.36
2023-04-16T18:20:38.950Z,62.34
2023-04-16T18:25:59.966Z,62.57
2023-04-16T18:31:22.016Z,62.84
2023-04-16T18:36:43.106Z,62.97
2023-04-16T18:42:04.070Z,62.98
2023-04-16T18:47:25.118Z,63.35
2023-04-16T18:52:46.322Z,63.19
2023-04-16T18:58:07.172Z,63.33
2023-04-16T19:03:29.724Z,63.98
2023-04-16T19:08:50.737Z,63.54
2023-04-16T19:14:11.596Z,63.44
2023-04-16T19:19:32.404Z,63.46
2023-04-16T19:24:54.730Z,63.53
2023-04-16T19:30:15.645Z,63.46
2023-04-16T19:35:36.491Z,63.57
2023-04-16T19:40:57.205Z,63.54
2023-04-16T19:46:18.167Z,63.12
2023-04-16T19:51:39.051Z,63.10
2023-04-16T19:56:59.821Z,63.07
2023-04-16T20:02:20.906Z,63.16
2023-04-16T20:07:42.134Z,63.14
2023-04-16T20:13:03.004Z,63.32
2023-04-16T20:18:24.870Z,63.27
2023-04-16T20:23:46.928Z,63.82
2023-04-16T20:29:08.059Z,63.76
2023-04-16T20:34:29.101Z,63.66
2023-04-16T20:39:54.189Z,63.82
2023-04-16T20:45:15.526Z,64.29
2023-04-16T20:50:36.459Z,63.88
2023-04-16T20:55:57.671Z,64.38
2023-04-16T21:01:18.490Z,64.22
2023-04-16T21:06:43.078Z,64.49
2023-04-16T21:12:04.169Z,64.62
2023-04-16T21:17:25.027Z,65.16
2023-04-16T21:22:45.864Z,64.88
2023-04-16T21:28:06.790Z,65.12
2023-04-16T21:33:27.804Z,65.28
2023-04-16T21:38:48.564Z,65.32
2023-04-16T21:44:09.352Z,65.65
2023-04-16T21:49:30.130Z,65.46
2023-04-16T21:54:51.150Z,65.60
2023-04-16T22:00:14.352Z,65.73
2023-04-16T22:05:35.106Z,66.30
2023-04-16T22:11:00.316Z,65.79
2023-04-16T22:16:21.458Z,66.13
2023-04-16T22:21:42.531Z,65.94
2023-04-16T22:27:03.667Z,65.77
2023-04-16T22:32:24.580Z,65.59
2023-04-16T22:37:45.678Z,65.93
2023-04-16T22:43:06.273Z,66.19
2023-04-16T22:48:27.098Z,65.85
2023-04-16T22:53:47.778Z,65.82
2023-04-16T22:59:08.633Z,66.21
2023-04-16T23:04:29.548Z,65.76
2023-04-16T23:09:50.358Z,66.00
2023-04-16T23:15:11.552Z,65.86
2023-04-16T23:20:32.377Z,65.48
2023-04-16T23:25:53.840Z,65.87
2023-04-16T23:31:14.427Z,65.83
2023-04-16T23:36:35.112Z,66.08
2023-04-16T23:41:57.195Z,66.12
2023-04-16T23:47:18.061Z,65.99
2023-04-16T23:52:38.645Z,66.42
2023-04-16T23:57:59.401Z,66.10
